KHYA/HYA METAR and TAF weather

Enter ICAO airport designator
Station Type Date Time Source
KHYA METAR 2020/09/19 23:56 UTC NOAA

KHYA 192356Z 00000KT 10SM CLR 08/02 A3032 RMK AO2 SLP267 T00780017 10161 20078 52014


Station Type Date Time Source
KHYA Decoded METAR 2020/09/19 23:56 UTC NOAA

HYANNIS BARNSTABLE BOARDMN, MA, United States (KHYA) 41-40N 070-16W 22M
Sep 19, 2020 - 07:56 PM EDT / 2020.09.19 2356 UTC
Wind: Calm:0
Visibility: 10 mile(s):0
Sky conditions: clear
Temperature: 46.0 F (7.8 C)
Dew Point: 35.1 F (1.7 C)
Relative Humidity: 65%
Pressure (altimeter): 30.32 in. Hg (1026 hPa)
Pressure tendency: 0.04 inches (1.4 hPa) higher than three hours ago
ob: KHYA 192356Z 00000KT 10SM CLR 08/02 A3032 RMK AO2 SLP267 T00780017 10161 20078 52014
cycle: 0

Station Type Date Time Source
KHYA TAF 2020/09/19 18:33 UTC NOAA

TAF KHYA 191731Z 1918/2018 01015G24KT P6SM SKC
FM200100 02010KT P6SM FEW120
FM201200 03014G23KT P6SM SCT040

Example: see airport list